首页
METAR-TAF:

METAR-TAF

机场 :

Tupelo Regional Airport (C.D. Lemons Field)

图珀洛, 密西西比州, 美国

纬度: 34-16-05N, 经度: 088-46-12W, 海拔: 106米

当前天气观测

该预报发布于22分钟前的20:53 UTC
风速6节,风向多变
温度 33°C
湿度 41%
气压 1013 hPa
能見度: 16.1公里
少量云层高于5500英尺

METAR: KTUP 032053Z VRB06KT 10SM FEW055 33/18 A2991 RMK AO2 SLP125 T03330178 58021 $

时间: 16:15 (21:15 UTC)

预报

该预报发布于3小时和45分钟前的17:30 UTC
预报有效从03日的 18点(UTC)到 04日的 18点(UTC)
风速4节,风向多变
能見度: 10公里
少量云层高于4500英尺
少量云层高于10000英尺
小阵雨
从 03日的 2100点(UTC)
风速4节,风向多变
能見度: 10公里
散云层高于4500英尺, 积雨云.
附近有雷暴
短暂存在
从 03日的 21点(UTC)到 04日的 01点(UTC)
能見度: 6.4公里
多云层高于4500英尺, 积雨云.
雷暴, 小雨
从 04日的 0100点(UTC)
风速4节,风向多变
能見度: 10公里
少量云层高于4500英尺
少量云层高于10000英尺
从 04日的 1200点(UTC)
风速3节,风向多变
能見度: 10公里
散云层高于2000英尺

TAF: KTUP 031730Z 0318/0418 VRB04KT P6SM -SHRA FEW045 FEW100 FM032100 VRB04KT P6SM VCTS SCT045CB TEMPO 0321/0401 4SM -TSRA BKN045CB FM040100 VRB04KT P6SM FEW045 FEW100 FM041200 VRB03KT P6SM SCT020

超过4000个机场的气象观测和天气预报(METAR&TAF报告)。

可查询的气象台以黄色和红色小点在地图上表示。

将鼠标移到小点上方,可查看气象台名称。

然后点击查看天气观测和预报。

如需切换地图:点击带黑十字的绿色按钮放大地图;点击带横线的绿色按钮缩小地图;或者点击绿色箭头查看邻近地区的地图。


METAR-TAF: